sensor_id;sensor_type;location;lat;lon;timestamp;temperature;humidity
13684;DHT22;6914;53.552;9.908;2023-02-28T00:01:23;3.60;99.90
13684;DHT22;6914;53.552;9.908;2023-02-28T00:03:50;3.60;99.90
13684;DHT22;6914;53.552;9.908;2023-02-28T00:06:17;3.60;99.90
13684;DHT22;6914;53.552;9.908;2023-02-28T00:08:49;3.50;99.90
13684;DHT22;6914;53.552;9.908;2023-02-28T00:11:17;3.50;99.90
13684;DHT22;6914;53.552;9.908;2023-02-28T00:13:54;3.40;99.90
13684;DHT22;6914;53.552;9.908;2023-02-28T00:16:22;3.40;99.90
13684;DHT22;6914;53.552;9.908;2023-02-28T00:18:50;3.60;99.90
13684;DHT22;6914;53.552;9.908;2023-02-28T00:21:18;3.30;99.90
13684;DHT22;6914;53.552;9.908;2023-02-28T00:23:46;3.40;99.90
13684;DHT22;6914;53.552;9.908;2023-02-28T00:26:14;3.40;99.90
13684;DHT22;6914;53.552;9.908;2023-02-28T00:28:41;3.40;99.90
13684;DHT22;6914;53.552;9.908;2023-02-28T00:31:09;3.30;99.90
13684;DHT22;6914;53.552;9.908;2023-02-28T00:33:36;3.30;99.90
13684;DHT22;6914;53.552;9.908;2023-02-28T00:36:05;3.00;99.90
13684;DHT22;6914;53.552;9.908;2023-02-28T00:38:33;3.40;99.90
13684;DHT22;6914;53.552;9.908;2023-02-28T00:41:00;3.30;99.90
13684;DHT22;6914;53.552;9.908;2023-02-28T00:43:31;3.20;99.90
13684;DHT22;6914;53.552;9.908;2023-02-28T00:45:57;3.20;99.90
13684;DHT22;6914;53.552;9.908;2023-02-28T00:48:25;3.20;99.90
13684;DHT22;6914;53.552;9.908;2023-02-28T00:50:52;3.50;99.90
13684;DHT22;6914;53.552;9.908;2023-02-28T00:53:19;3.00;99.90
13684;DHT22;6914;53.552;9.908;2023-02-28T00:55:46;3.10;99.90
13684;DHT22;6914;53.552;9.908;2023-02-28T00:58:15;3.20;99.90
13684;DHT22;6914;53.552;9.908;2023-02-28T01:00:41;3.10;99.90
13684;DHT22;6914;53.552;9.908;2023-02-28T01:03:08;3.20;99.90
13684;DHT22;6914;53.552;9.908;2023-02-28T01:05:36;3.00;99.90
13684;DHT22;6914;53.552;9.908;2023-02-28T01:08:04;3.30;99.90
13684;DHT22;6914;53.552;9.908;2023-02-28T01:10:31;3.10;99.90
13684;DHT22;6914;53.552;9.908;2023-02-28T01:12:58;3.00;99.90
13684;DHT22;6914;53.552;9.908;2023-02-28T01:15:25;3.00;99.90
13684;DHT22;6914;53.552;9.908;2023-02-28T01:17:52;3.00;99.90
13684;DHT22;6914;53.552;9.908;2023-02-28T01:20:19;3.00;99.90
13684;DHT22;6914;53.552;9.908;2023-02-28T01:22:48;3.00;99.90
13684;DHT22;6914;53.552;9.908;2023-02-28T01:25:15;3.00;99.90
13684;DHT22;6914;53.552;9.908;2023-02-28T01:27:41;2.90;99.90
13684;DHT22;6914;53.552;9.908;2023-02-28T01:30:11;2.80;99.90
13684;DHT22;6914;53.552;9.908;2023-02-28T01:32:38;2.90;99.90
13684;DHT22;6914;53.552;9.908;2023-02-28T01:35:05;2.80;99.90
13684;DHT22;6914;53.552;9.908;2023-02-28T01:37:32;2.90;99.90
13684;DHT22;6914;53.552;9.908;2023-02-28T01:40:00;2.80;99.90
13684;DHT22;6914;53.552;9.908;2023-02-28T01:42:27;2.90;99.90
13684;DHT22;6914;53.552;9.908;2023-02-28T01:45:01;2.90;99.90
13684;DHT22;6914;53.552;9.908;2023-02-28T01:47:31;3.00;99.90
13684;DHT22;6914;53.552;9.908;2023-02-28T01:50:01;3.00;99.90
13684;DHT22;6914;53.552;9.908;2023-02-28T01:52:30;3.60;99.90
13684;DHT22;6914;53.552;9.908;2023-02-28T01:54:59;3.00;99.90
13684;DHT22;6914;53.552;9.908;2023-02-28T01:57:30;3.30;99.90
13684;DHT22;6914;53.552;9.908;2023-02-28T02:00:05;2.90;99.90
13684;DHT22;6914;53.552;9.908;2023-02-28T02:02:36;3.20;99.90
13684;DHT22;6914;53.552;9.908;2023-02-28T02:05:06;4.30;99.90
13684;DHT22;6914;53.552;9.908;2023-02-28T02:07:35;3.20;99.90
13684;DHT22;6914;53.552;9.908;2023-02-28T02:10:09;3.00;99.90
13684;DHT22;6914;53.552;9.908;2023-02-28T02:13:01;3.00;99.90
13684;DHT22;6914;53.552;9.908;2023-02-28T02:15:34;3.00;99.90
13684;DHT22;6914;53.552;9.908;2023-02-28T02:18:12;2.80;99.90
13684;DHT22;6914;53.552;9.908;2023-02-28T02:21:04;2.40;99.90
13684;DHT22;6914;53.552;9.908;2023-02-28T02:24:01;3.00;99.90
13684;DHT22;6914;53.552;9.908;2023-02-28T02:26:57;2.80;99.90
13684;DHT22;6914;53.552;9.908;2023-02-28T02:32:44;2.80;99.90
13684;DHT22;6914;53.552;9.908;2023-02-28T02:35:15;2.60;99.90
13684;DHT22;6914;53.552;9.908;2023-02-28T02:37:49;2.30;99.90
13684;DHT22;6914;53.552;9.908;2023-02-28T02:40:20;2.20;99.90
13684;DHT22;6914;53.552;9.908;2023-02-28T02:42:54;2.60;99.90
13684;DHT22;6914;53.552;9.908;2023-02-28T02:45:25;2.50;99.90
13684;DHT22;6914;53.552;9.908;2023-02-28T02:48:01;2.40;99.90
13684;DHT22;6914;53.552;9.908;2023-02-28T02:50:35;2.30;99.90
13684;DHT22;6914;53.552;9.908;2023-02-28T02:53:04;2.20;99.90
13684;DHT22;6914;53.552;9.908;2023-02-28T02:55:36;2.30;99.90
13684;DHT22;6914;53.552;9.908;2023-02-28T02:58:05;2.20;99.90
13684;DHT22;6914;53.552;9.908;2023-02-28T03:00:38;1.70;99.90
13684;DHT22;6914;53.552;9.908;2023-02-28T03:03:07;2.10;99.90
13684;DHT22;6914;53.552;9.908;2023-02-28T03:05:41;1.90;99.90
13684;DHT22;6914;53.552;9.908;2023-02-28T03:08:09;1.80;99.90
13684;DHT22;6914;53.552;9.908;2023-02-28T03:10:38;1.80;99.90
13684;DHT22;6914;53.552;9.908;2023-02-28T03:13:27;1.70;99.90
13684;DHT22;6914;53.552;9.908;2023-02-28T03:16:10;2.00;99.90
13684;DHT22;6914;53.552;9.908;2023-02-28T03:18:44;1.60;99.90
13684;DHT22;6914;53.552;9.908;2023-02-28T03:21:22;1.60;99.90
13684;DHT22;6914;53.552;9.908;2023-02-28T03:23:57;1.50;99.90
13684;DHT22;6914;53.552;9.908;2023-02-28T03:26:29;1.40;99.90
13684;DHT22;6914;53.552;9.908;2023-02-28T03:29:02;1.50;99.90
13684;DHT22;6914;53.552;9.908;2023-02-28T03:31:35;1.30;99.90
13684;DHT22;6914;53.552;9.908;2023-02-28T03:34:08;1.40;99.90
13684;DHT22;6914;53.552;9.908;2023-02-28T03:36:38;1.40;99.90
13684;DHT22;6914;53.552;9.908;2023-02-28T03:39:11;1.30;99.90
13684;DHT22;6914;53.552;9.908;2023-02-28T03:41:43;1.20;99.90
13684;DHT22;6914;53.552;9.908;2023-02-28T03:44:16;1.20;99.90
13684;DHT22;6914;53.552;9.908;2023-02-28T03:46:48;1.10;99.90
13684;DHT22;6914;53.552;9.908;2023-02-28T03:49:20;1.10;99.90
13684;DHT22;6914;53.552;9.908;2023-02-28T03:51:49;0.90;99.90
13684;DHT22;6914;53.552;9.908;2023-02-28T03:54:23;0.80;99.90
13684;DHT22;6914;53.552;9.908;2023-02-28T03:56:54;0.70;99.90
13684;DHT22;6914;53.552;9.908;2023-02-28T03:59:30;0.80;99.90
13684;DHT22;6914;53.552;9.908;2023-02-28T04:01:59;0.80;99.90
13684;DHT22;6914;53.552;9.908;2023-02-28T04:04:26;0.80;99.90
13684;DHT22;6914;53.552;9.908;2023-02-28T04:07:04;0.80;99.90
13684;DHT22;6914;53.552;9.908;2023-02-28T04:09:31;0.70;99.90
13684;DHT22;6914;53.552;9.908;2023-02-28T04:11:58;0.90;99.90
13684;DHT22;6914;53.552;9.908;2023-02-28T04:14:25;0.60;99.90
13684;DHT22;6914;53.552;9.908;2023-02-28T04:16:58;0.60;99.90
13684;DHT22;6914;53.552;9.908;2023-02-28T04:19:25;1.30;99.90
13684;DHT22;6914;53.552;9.908;2023-02-28T04:21:53;0.30;99.90
13684;DHT22;6914;53.552;9.908;2023-02-28T04:24:23;0.40;99.90
13684;DHT22;6914;53.552;9.908;2023-02-28T04:26:52;0.30;99.90
13684;DHT22;6914;53.552;9.908;2023-02-28T04:29:21;0.30;99.90
13684;DHT22;6914;53.552;9.908;2023-02-28T04:31:48;0.30;99.90
13684;DHT22;6914;53.552;9.908;2023-02-28T04:34:15;0.20;99.90
13684;DHT22;6914;53.552;9.908;2023-02-28T04:36:44;0.30;99.90
13684;DHT22;6914;53.552;9.908;2023-02-28T04:39:11;0.30;99.90
13684;DHT22;6914;53.552;9.908;2023-02-28T04:41:39;0.00;99.90
13684;DHT22;6914;53.552;9.908;2023-02-28T04:44:06;-0.10;99.90
13684;DHT22;6914;53.552;9.908;2023-02-28T04:46:32;-0.20;99.90
13684;DHT22;6914;53.552;9.908;2023-02-28T04:48:59;-0.80;99.90
13684;DHT22;6914;53.552;9.908;2023-02-28T04:51:26;-0.30;99.90
13684;DHT22;6914;53.552;9.908;2023-02-28T04:53:53;-0.30;99.90
13684;DHT22;6914;53.552;9.908;2023-02-28T04:56:20;-0.40;99.90
13684;DHT22;6914;53.552;9.908;2023-02-28T04:58:48;-0.30;99.90
13684;DHT22;6914;53.552;9.908;2023-02-28T05:01:18;-0.30;99.90
13684;DHT22;6914;53.552;9.908;2023-02-28T05:03:46;-0.30;99.90
13684;DHT22;6914;53.552;9.908;2023-02-28T05:06:13;0.20;99.90
13684;DHT22;6914;53.552;9.908;2023-02-28T05:08:40;-0.10;99.90
13684;DHT22;6914;53.552;9.908;2023-02-28T05:11:13;-0.40;99.90
13684;DHT22;6914;53.552;9.908;2023-02-28T05:13:40;-0.40;99.90
13684;DHT22;6914;53.552;9.908;2023-02-28T05:16:08;-0.40;99.90
13684;DHT22;6914;53.552;9.908;2023-02-28T05:18:35;-0.40;99.90
13684;DHT22;6914;53.552;9.908;2023-02-28T05:21:02;-0.40;99.90
13684;DHT22;6914;53.552;9.908;2023-02-28T05:23:29;-0.30;99.90
13684;DHT22;6914;53.552;9.908;2023-02-28T05:25:56;-0.20;99.90
13684;DHT22;6914;53.552;9.908;2023-02-28T05:28:26;-0.30;99.90
13684;DHT22;6914;53.552;9.908;2023-02-28T05:30:53;-0.10;99.90
13684;DHT22;6914;53.552;9.908;2023-02-28T05:33:21;-0.30;99.90
13684;DHT22;6914;53.552;9.908;2023-02-28T05:35:47;-0.40;99.90
13684;DHT22;6914;53.552;9.908;2023-02-28T05:38:14;-0.40;99.90
13684;DHT22;6914;53.552;9.908;2023-02-28T05:40:41;-0.60;99.90
13684;DHT22;6914;53.552;9.908;2023-02-28T05:43:10;-0.10;99.90
13684;DHT22;6914;53.552;9.908;2023-02-28T05:45:37;-0.70;99.90
13684;DHT22;6914;53.552;9.908;2023-02-28T05:48:04;-0.70;99.90
13684;DHT22;6914;53.552;9.908;2023-02-28T05:50:32;-0.60;99.90
13684;DHT22;6914;53.552;9.908;2023-02-28T05:53:00;-0.50;99.90
13684;DHT22;6914;53.552;9.908;2023-02-28T05:55:26;-0.70;99.90
13684;DHT22;6914;53.552;9.908;2023-02-28T05:57:53;-0.70;99.90
13684;DHT22;6914;53.552;9.908;2023-02-28T06:00:21;-0.80;99.90
13684;DHT22;6914;53.552;9.908;2023-02-28T06:02:48;-1.60;99.90
13684;DHT22;6914;53.552;9.908;2023-02-28T06:05:17;-0.70;99.90
13684;DHT22;6914;53.552;9.908;2023-02-28T06:07:45;-0.40;99.90
13684;DHT22;6914;53.552;9.908;2023-02-28T06:10:13;-0.50;99.90
13684;DHT22;6914;53.552;9.908;2023-02-28T06:12:40;-1.00;99.90
13684;DHT22;6914;53.552;9.908;2023-02-28T06:15:11;-0.80;99.90
13684;DHT22;6914;53.552;9.908;2023-02-28T06:17:38;-0.60;99.90
13684;DHT22;6914;53.552;9.908;2023-02-28T06:20:08;-0.90;99.90
13684;DHT22;6914;53.552;9.908;2023-02-28T06:22:36;-0.80;99.90
13684;DHT22;6914;53.552;9.908;2023-02-28T06:25:06;-1.30;99.90
13684;DHT22;6914;53.552;9.908;2023-02-28T06:27:33;-0.80;99.90
13684;DHT22;6914;53.552;9.908;2023-02-28T06:30:00;-0.80;99.90
13684;DHT22;6914;53.552;9.908;2023-02-28T06:32:27;-0.70;99.90
13684;DHT22;6914;53.552;9.908;2023-02-28T06:34:54;-0.60;99.90
13684;DHT22;6914;53.552;9.908;2023-02-28T06:37:24;-0.30;99.90
13684;DHT22;6914;53.552;9.908;2023-02-28T06:39:52;-0.60;99.90
13684;DHT22;6914;53.552;9.908;2023-02-28T06:42:21;-0.60;99.90
13684;DHT22;6914;53.552;9.908;2023-02-28T06:44:51;-0.60;99.90
13684;DHT22;6914;53.552;9.908;2023-02-28T06:47:17;-0.60;99.90
13684;DHT22;6914;53.552;9.908;2023-02-28T06:49:44;-0.70;99.90
13684;DHT22;6914;53.552;9.908;2023-02-28T06:52:11;-0.60;99.90
13684;DHT22;6914;53.552;9.908;2023-02-28T06:54:38;-0.60;99.90
13684;DHT22;6914;53.552;9.908;2023-02-28T06:57:05;-1.10;99.90
13684;DHT22;6914;53.552;9.908;2023-02-28T06:59:33;-0.60;99.90
13684;DHT22;6914;53.552;9.908;2023-02-28T07:02:03;-0.40;99.90
13684;DHT22;6914;53.552;9.908;2023-02-28T07:04:31;-0.30;99.90
13684;DHT22;6914;53.552;9.908;2023-02-28T07:07:02;-0.30;99.90
13684;DHT22;6914;53.552;9.908;2023-02-28T07:09:29;-0.20;99.90
13684;DHT22;6914;53.552;9.908;2023-02-28T07:11:56;-0.10;99.90
13684;DHT22;6914;53.552;9.908;2023-02-28T07:14:23;-0.10;99.90
13684;DHT22;6914;53.552;9.908;2023-02-28T07:16:51;0.10;99.90
13684;DHT22;6914;53.552;9.908;2023-02-28T07:19:18;0.10;99.90
13684;DHT22;6914;53.552;9.908;2023-02-28T07:21:44;0.80;99.90
13684;DHT22;6914;53.552;9.908;2023-02-28T07:24:11;-0.20;99.90
13684;DHT22;6914;53.552;9.908;2023-02-28T07:26:41;0.10;99.90
13684;DHT22;6914;53.552;9.908;2023-02-28T07:29:08;0.20;99.90
13684;DHT22;6914;53.552;9.908;2023-02-28T07:31:35;0.30;99.90
13684;DHT22;6914;53.552;9.908;2023-02-28T07:34:03;0.30;99.90
13684;DHT22;6914;53.552;9.908;2023-02-28T07:36:30;0.50;99.90
13684;DHT22;6914;53.552;9.908;2023-02-28T07:39:02;0.50;99.90
13684;DHT22;6914;53.552;9.908;2023-02-28T07:41:29;0.50;99.90
13684;DHT22;6914;53.552;9.908;2023-02-28T07:44:00;0.50;99.90
13684;DHT22;6914;53.552;9.908;2023-02-28T07:46:28;0.60;99.90
13684;DHT22;6914;53.552;9.908;2023-02-28T07:49:00;0.70;99.90
13684;DHT22;6914;53.552;9.908;2023-02-28T07:51:29;0.70;99.90
13684;DHT22;6914;53.552;9.908;2023-02-28T07:53:57;1.00;99.90
13684;DHT22;6914;53.552;9.908;2023-02-28T07:56:26;1.10;99.90
13684;DHT22;6914;53.552;9.908;2023-02-28T07:58:53;1.20;99.90
13684;DHT22;6914;53.552;9.908;2023-02-28T08:01:19;1.30;99.90
13684;DHT22;6914;53.552;9.908;2023-02-28T08:03:47;1.50;99.90
13684;DHT22;6914;53.552;9.908;2023-02-28T08:06:18;1.30;99.90
13684;DHT22;6914;53.552;9.908;2023-02-28T08:08:47;1.60;99.90
13684;DHT22;6914;53.552;9.908;2023-02-28T08:11:15;1.60;99.90
13684;DHT22;6914;53.552;9.908;2023-02-28T08:13:42;1.90;99.90
13684;DHT22;6914;53.552;9.908;2023-02-28T08:16:10;2.10;99.90
13684;DHT22;6914;53.552;9.908;2023-02-28T08:18:39;2.40;99.90
13684;DHT22;6914;53.552;9.908;2023-02-28T08:21:07;2.60;99.90
13684;DHT22;6914;53.552;9.908;2023-02-28T08:23:34;2.70;99.90
13684;DHT22;6914;53.552;9.908;2023-02-28T08:26:02;2.70;99.90
13684;DHT22;6914;53.552;9.908;2023-02-28T08:28:29;2.80;99.90
13684;DHT22;6914;53.552;9.908;2023-02-28T08:30:56;2.70;99.90
13684;DHT22;6914;53.552;9.908;2023-02-28T08:33:24;2.90;99.90
13684;DHT22;6914;53.552;9.908;2023-02-28T08:35:53;2.80;99.90
13684;DHT22;6914;53.552;9.908;2023-02-28T08:38:21;2.90;99.90
13684;DHT22;6914;53.552;9.908;2023-02-28T08:40:49;3.10;99.90
13684;DHT22;6914;53.552;9.908;2023-02-28T08:43:17;3.10;99.90
13684;DHT22;6914;53.552;9.908;2023-02-28T08:45:44;2.80;99.90
13684;DHT22;6914;53.552;9.908;2023-02-28T08:48:11;3.30;99.90
13684;DHT22;6914;53.552;9.908;2023-02-28T08:50:38;3.40;99.90
13684;DHT22;6914;53.552;9.908;2023-02-28T08:53:05;3.50;99.90
13684;DHT22;6914;53.552;9.908;2023-02-28T08:55:32;3.60;99.90
13684;DHT22;6914;53.552;9.908;2023-02-28T08:58:01;3.60;99.90
13684;DHT22;6914;53.552;9.908;2023-02-28T09:00:30;3.90;99.90
13684;DHT22;6914;53.552;9.908;2023-02-28T09:03:02;4.00;99.90
13684;DHT22;6914;53.552;9.908;2023-02-28T09:05:29;3.30;99.90
13684;DHT22;6914;53.552;9.908;2023-02-28T09:07:55;4.70;99.90
13684;DHT22;6914;53.552;9.908;2023-02-28T09:10:22;4.80;99.90
13684;DHT22;6914;53.552;9.908;2023-02-28T09:12:50;5.30;99.90
13684;DHT22;6914;53.552;9.908;2023-02-28T09:15:18;5.20;99.90
13684;DHT22;6914;53.552;9.908;2023-02-28T09:17:46;7.10;93.30
13684;DHT22;6914;53.552;9.908;2023-02-28T09:20:13;8.40;80.40
13684;DHT22;6914;53.552;9.908;2023-02-28T09:22:40;10.00;70.30
13684;DHT22;6914;53.552;9.908;2023-02-28T09:25:07;11.20;62.00
13684;DHT22;6914;53.552;9.908;2023-02-28T09:27:34;11.90;59.70
13684;DHT22;6914;53.552;9.908;2023-02-28T09:30:01;12.50;56.70
13684;DHT22;6914;53.552;9.908;2023-02-28T09:32:28;13.10;57.20
13684;DHT22;6914;53.552;9.908;2023-02-28T09:34:56;13.50;55.30
13684;DHT22;6914;53.552;9.908;2023-02-28T09:37:24;13.80;54.70
13684;DHT22;6914;53.552;9.908;2023-02-28T09:39:56;14.10;52.40
13684;DHT22;6914;53.552;9.908;2023-02-28T09:42:29;15.10;52.90
13684;DHT22;6914;53.552;9.908;2023-02-28T09:45:02;15.00;51.30
13684;DHT22;6914;53.552;9.908;2023-02-28T09:47:35;15.70;50.10
13684;DHT22;6914;53.552;9.908;2023-02-28T09:50:29;15.20;48.90
13684;DHT22;6914;53.552;9.908;2023-02-28T09:52:59;15.50;46.20
13684;DHT22;6914;53.552;9.908;2023-02-28T09:55:31;14.90;46.70
13684;DHT22;6914;53.552;9.908;2023-02-28T09:58:02;15.30;46.10
13684;DHT22;6914;53.552;9.908;2023-02-28T10:00:33;15.70;45.80
13684;DHT22;6914;53.552;9.908;2023-02-28T10:03:23;16.00;44.40
13684;DHT22;6914;53.552;9.908;2023-02-28T10:05:58;16.70;44.60
13684;DHT22;6914;53.552;9.908;2023-02-28T10:08:32;16.10;44.70
13684;DHT22;6914;53.552;9.908;2023-02-28T10:11:03;16.00;44.80
13684;DHT22;6914;53.552;9.908;2023-02-28T10:13:35;16.50;45.40
13684;DHT22;6914;53.552;9.908;2023-02-28T10:16:06;16.60;43.90
13684;DHT22;6914;53.552;9.908;2023-02-28T10:18:41;16.20;45.70
13684;DHT22;6914;53.552;9.908;2023-02-28T10:21:17;15.70;45.40
13684;DHT22;6914;53.552;9.908;2023-02-28T10:23:45;16.20;45.20
13684;DHT22;6914;53.552;9.908;2023-02-28T10:26:14;16.10;45.50
13684;DHT22;6914;53.552;9.908;2023-02-28T10:28:42;16.10;45.40
13684;DHT22;6914;53.552;9.908;2023-02-28T10:31:13;16.10;45.10
13684;DHT22;6914;53.552;9.908;2023-02-28T10:33:41;16.30;45.80
13684;DHT22;6914;53.552;9.908;2023-02-28T10:36:14;16.40;45.80
13684;DHT22;6914;53.552;9.908;2023-02-28T10:38:43;16.70;44.20
13684;DHT22;6914;53.552;9.908;2023-02-28T10:41:12;16.20;45.00
13684;DHT22;6914;53.552;9.908;2023-02-28T10:43:40;16.60;45.30
13684;DHT22;6914;53.552;9.908;2023-02-28T10:46:13;16.40;45.60
13684;DHT22;6914;53.552;9.908;2023-02-28T10:49:02;16.00;45.60
13684;DHT22;6914;53.552;9.908;2023-02-28T10:51:37;16.20;45.30
13684;DHT22;6914;53.552;9.908;2023-02-28T10:54:04;15.70;45.40
13684;DHT22;6914;53.552;9.908;2023-02-28T10:56:32;15.90;45.20
13684;DHT22;6914;53.552;9.908;2023-02-28T10:59:08;15.60;45.30
13684;DHT22;6914;53.552;9.908;2023-02-28T11:01:47;14.60;45.30
13684;DHT22;6914;53.552;9.908;2023-02-28T11:04:19;14.60;46.00
13684;DHT22;6914;53.552;9.908;2023-02-28T11:06:57;15.70;45.50
13684;DHT22;6914;53.552;9.908;2023-02-28T11:09:28;15.60;46.40
13684;DHT22;6914;53.552;9.908;2023-02-28T11:11:55;14.20;45.80
13684;DHT22;6914;53.552;9.908;2023-02-28T11:14:34;15.00;46.20
13684;DHT22;6914;53.552;9.908;2023-02-28T11:17:15;15.30;45.60
13684;DHT22;6914;53.552;9.908;2023-02-28T11:19:48;15.50;43.60
13684;DHT22;6914;53.552;9.908;2023-02-28T11:22:20;14.90;43.90
13684;DHT22;6914;53.552;9.908;2023-02-28T11:24:50;15.10;45.00
13684;DHT22;6914;53.552;9.908;2023-02-28T11:27:26;15.40;46.00
13684;DHT22;6914;53.552;9.908;2023-02-28T11:29:53;16.10;43.60
13684;DHT22;6914;53.552;9.908;2023-02-28T11:32:21;15.50;44.00
13684;DHT22;6914;53.552;9.908;2023-02-28T11:35:02;15.40;44.60
13684;DHT22;6914;53.552;9.908;2023-02-28T11:37:32;13.40;43.70
13684;DHT22;6914;53.552;9.908;2023-02-28T11:40:13;13.40;46.40
13684;DHT22;6914;53.552;9.908;2023-02-28T11:42:56;14.60;46.40
13684;DHT22;6914;53.552;9.908;2023-02-28T11:45:52;13.40;45.30
13684;DHT22;6914;53.552;9.908;2023-02-28T11:48:25;14.20;45.70
13684;DHT22;6914;53.552;9.908;2023-02-28T11:51:10;14.00;45.90
13684;DHT22;6914;53.552;9.908;2023-02-28T11:56:45;12.40;45.80
13684;DHT22;6914;53.552;9.908;2023-02-28T11:59:26;13.00;46.30
13684;DHT22;6914;53.552;9.908;2023-02-28T12:02:06;13.30;46.40
13684;DHT22;6914;53.552;9.908;2023-02-28T12:04:47;13.80;45.20
13684;DHT22;6914;53.552;9.908;2023-02-28T12:07:25;14.00;44.40
13684;DHT22;6914;53.552;9.908;2023-02-28T12:10:04;14.10;45.20
13684;DHT22;6914;53.552;9.908;2023-02-28T12:12:41;14.60;44.40
13684;DHT22;6914;53.552;9.908;2023-02-28T12:15:43;15.40;45.30
13684;DHT22;6914;53.552;9.908;2023-02-28T12:18:32;15.10;44.50
13684;DHT22;6914;53.552;9.908;2023-02-28T12:21:11;15.00;44.40
13684;DHT22;6914;53.552;9.908;2023-02-28T12:24:01;14.80;43.60
13684;DHT22;6914;53.552;9.908;2023-02-28T12:26:36;14.40;43.70
13684;DHT22;6914;53.552;9.908;2023-02-28T12:29:10;14.10;44.00
13684;DHT22;6914;53.552;9.908;2023-02-28T12:31:44;13.80;44.90
13684;DHT22;6914;53.552;9.908;2023-02-28T12:34:15;14.00;44.50
13684;DHT22;6914;53.552;9.908;2023-02-28T12:36:47;13.80;43.70
13684;DHT22;6914;53.552;9.908;2023-02-28T12:39:19;13.40;44.40
13684;DHT22;6914;53.552;9.908;2023-02-28T12:41:53;13.40;45.20
13684;DHT22;6914;53.552;9.908;2023-02-28T12:44:26;13.70;45.50
13684;DHT22;6914;53.552;9.908;2023-02-28T12:46:58;13.10;45.30
13684;DHT22;6914;53.552;9.908;2023-02-28T12:49:31;13.00;46.10
13684;DHT22;6914;53.552;9.908;2023-02-28T12:52:01;12.10;45.70
13684;DHT22;6914;53.552;9.908;2023-02-28T12:54:32;12.30;46.20
13684;DHT22;6914;53.552;9.908;2023-02-28T12:57:09;12.20;46.10
13684;DHT22;6914;53.552;9.908;2023-02-28T12:59:41;12.10;46.20
13684;DHT22;6914;53.552;9.908;2023-02-28T13:02:55;11.70;46.70
13684;DHT22;6914;53.552;9.908;2023-02-28T13:05:37;11.50;46.50
13684;DHT22;6914;53.552;9.908;2023-02-28T13:08:32;12.00;47.00
13684;DHT22;6914;53.552;9.908;2023-02-28T13:11:03;11.90;46.70
13684;DHT22;6914;53.552;9.908;2023-02-28T13:13:31;11.60;47.70
13684;DHT22;6914;53.552;9.908;2023-02-28T13:16:02;12.00;47.80
13684;DHT22;6914;53.552;9.908;2023-02-28T13:18:35;12.20;46.50
13684;DHT22;6914;53.552;9.908;2023-02-28T13:21:05;11.80;47.90
13684;DHT22;6914;53.552;9.908;2023-02-28T13:23:57;11.40;48.10
13684;DHT22;6914;53.552;9.908;2023-02-28T13:29:35;11.70;48.10
13684;DHT22;6914;53.552;9.908;2023-02-28T13:32:32;11.50;48.50
13684;DHT22;6914;53.552;9.908;2023-02-28T13:38:15;11.40;48.70
13684;DHT22;6914;53.552;9.908;2023-02-28T13:40:42;10.70;47.60
13684;DHT22;6914;53.552;9.908;2023-02-28T13:43:09;10.70;48.00
13684;DHT22;6914;53.552;9.908;2023-02-28T13:45:37;10.60;48.90
13684;DHT22;6914;53.552;9.908;2023-02-28T13:48:16;10.60;48.90
13684;DHT22;6914;53.552;9.908;2023-02-28T13:50:44;10.30;48.70
13684;DHT22;6914;53.552;9.908;2023-02-28T13:53:33;10.20;49.10
13684;DHT22;6914;53.552;9.908;2023-02-28T13:56:10;10.00;49.10
13684;DHT22;6914;53.552;9.908;2023-02-28T13:58:53;10.00;50.20
13684;DHT22;6914;53.552;9.908;2023-02-28T14:01:34;9.90;50.80
13684;DHT22;6914;53.552;9.908;2023-02-28T14:04:43;9.50;50.40
13684;DHT22;6914;53.552;9.908;2023-02-28T14:07:18;10.20;50.60
13684;DHT22;6914;53.552;9.908;2023-02-28T14:09:51;11.30;51.20
13684;DHT22;6914;53.552;9.908;2023-02-28T14:13:01;9.60;51.00
13684;DHT22;6914;53.552;9.908;2023-02-28T14:15:41;9.50;50.70
13684;DHT22;6914;53.552;9.908;2023-02-28T14:18:21;9.10;50.90
13684;DHT22;6914;53.552;9.908;2023-02-28T14:20:52;9.60;52.00
13684;DHT22;6914;53.552;9.908;2023-02-28T14:23:30;9.60;52.50
13684;DHT22;6914;53.552;9.908;2023-02-28T14:26:03;9.50;51.00
13684;DHT22;6914;53.552;9.908;2023-02-28T14:28:52;9.80;51.60
13684;DHT22;6914;53.552;9.908;2023-02-28T14:31:25;9.50;50.40
13684;DHT22;6914;53.552;9.908;2023-02-28T14:34:19;9.40;50.50
13684;DHT22;6914;53.552;9.908;2023-02-28T14:36:48;9.10;50.00
13684;DHT22;6914;53.552;9.908;2023-02-28T14:39:17;9.40;51.70
13684;DHT22;6914;53.552;9.908;2023-02-28T14:41:46;9.00;51.40
13684;DHT22;6914;53.552;9.908;2023-02-28T14:44:15;8.90;51.10
13684;DHT22;6914;53.552;9.908;2023-02-28T14:46:43;8.90;51.10
13684;DHT22;6914;53.552;9.908;2023-02-28T14:49:24;9.10;51.80
13684;DHT22;6914;53.552;9.908;2023-02-28T14:52:06;9.00;51.90
13684;DHT22;6914;53.552;9.908;2023-02-28T14:54:35;8.20;51.40
13684;DHT22;6914;53.552;9.908;2023-02-28T14:57:05;9.10;52.00
13684;DHT22;6914;53.552;9.908;2023-02-28T14:59:34;9.20;52.50
13684;DHT22;6914;53.552;9.908;2023-02-28T15:02:19;9.20;52.00
13684;DHT22;6914;53.552;9.908;2023-02-28T15:04:54;8.90;51.90
13684;DHT22;6914;53.552;9.908;2023-02-28T15:07:21;8.70;51.40
13684;DHT22;6914;53.552;9.908;2023-02-28T15:10:17;8.70;52.80
13684;DHT22;6914;53.552;9.908;2023-02-28T15:12:49;8.80;52.30
13684;DHT22;6914;53.552;9.908;2023-02-28T15:15:18;8.50;52.20
13684;DHT22;6914;53.552;9.908;2023-02-28T15:17:49;8.50;53.00
13684;DHT22;6914;53.552;9.908;2023-02-28T15:20:19;8.40;53.30
13684;DHT22;6914;53.552;9.908;2023-02-28T15:22:47;8.40;53.50
13684;DHT22;6914;53.552;9.908;2023-02-28T15:25:19;8.50;53.90
13684;DHT22;6914;53.552;9.908;2023-02-28T15:27:49;8.00;53.80
13684;DHT22;6914;53.552;9.908;2023-02-28T15:30:19;8.10;53.80
13684;DHT22;6914;53.552;9.908;2023-02-28T15:33:05;8.10;54.30
13684;DHT22;6914;53.552;9.908;2023-02-28T15:35:35;8.10;54.30
13684;DHT22;6914;53.552;9.908;2023-02-28T15:38:15;8.20;54.90
13684;DHT22;6914;53.552;9.908;2023-02-28T15:40:43;8.20;54.80
13684;DHT22;6914;53.552;9.908;2023-02-28T15:43:15;8.00;54.50
13684;DHT22;6914;53.552;9.908;2023-02-28T15:45:46;7.90;54.80
13684;DHT22;6914;53.552;9.908;2023-02-28T15:48:17;7.60;54.80
13684;DHT22;6914;53.552;9.908;2023-02-28T15:50:48;7.80;55.10
13684;DHT22;6914;53.552;9.908;2023-02-28T15:53:17;7.80;55.80
13684;DHT22;6914;53.552;9.908;2023-02-28T15:55:56;7.70;55.90
13684;DHT22;6914;53.552;9.908;2023-02-28T15:58:25;7.60;55.00
13684;DHT22;6914;53.552;9.908;2023-02-28T16:01:19;7.50;55.30
13684;DHT22;6914;53.552;9.908;2023-02-28T16:03:48;7.50;55.40
13684;DHT22;6914;53.552;9.908;2023-02-28T16:06:34;7.70;56.30
13684;DHT22;6914;53.552;9.908;2023-02-28T16:09:09;7.30;55.80
13684;DHT22;6914;53.552;9.908;2023-02-28T16:11:39;7.40;55.90
13684;DHT22;6914;53.552;9.908;2023-02-28T16:14:14;7.30;56.20
13684;DHT22;6914;53.552;9.908;2023-02-28T16:16:48;7.60;56.40
13684;DHT22;6914;53.552;9.908;2023-02-28T16:19:16;7.30;56.50
13684;DHT22;6914;53.552;9.908;2023-02-28T16:21:44;7.20;56.30
13684;DHT22;6914;53.552;9.908;2023-02-28T16:24:11;7.20;57.30
13684;DHT22;6914;53.552;9.908;2023-02-28T16:26:40;7.10;57.00
13684;DHT22;6914;53.552;9.908;2023-02-28T16:29:10;7.40;57.30
13684;DHT22;6914;53.552;9.908;2023-02-28T16:31:40;7.00;57.10
13684;DHT22;6914;53.552;9.908;2023-02-28T16:34:09;7.00;57.40
13684;DHT22;6914;53.552;9.908;2023-02-28T16:36:36;6.90;57.30